Time;durP1;ratioP1;P1;durP2;ratioP2;P2;SDS_P1;SDS_P2;PMS_P1;PMS_P2;Temp;Humidity;BMP_temperature;BMP_pressure;BME280_temperature;BME280_humidity;BME280_pressure;Samples;Min_cycle;Max_cycle;Signal;HPM_P1;HPM_P2
2023/05/01 00:01:19;;;;;;;;;;;13.40;99.90;;;;;;5076138;28;20032;-60
2023/05/01 00:03:45;;;;;;;;;;;13.30;99.90;;;;;;5076208;28;19985;-61
2023/05/01 00:06:10;;;;;;;;;;;13.20;99.90;;;;;;5075842;28;19985;-61
2023/05/01 00:08:36;;;;;;;;;;;13.20;99.90;;;;;;5075994;28;20076;-61
2023/05/01 00:11:03;;;;;;;;;;;13.20;99.90;;;;;;5076249;28;20504;-61
2023/05/01 00:13:29;;;;;;;;;;;13.20;99.90;;;;;;5075964;28;19985;-61
2023/05/01 00:15:55;;;;;;;;;;;13.20;99.90;;;;;;5075712;28;20009;-61
2023/05/01 00:18:20;;;;;;;;;;;13.20;99.90;;;;;;5075742;28;19986;-61
2023/05/01 00:20:46;;;;;;;;;;;13.20;99.90;;;;;;5075761;28;19989;-62
2023/05/01 00:23:12;;;;;;;;;;;13.20;99.90;;;;;;5075955;28;19996;-61
2023/05/01 00:25:38;;;;;;;;;;;13.10;99.90;;;;;;5075809;28;19985;-61
2023/05/01 00:28:04;;;;;;;;;;;13.10;99.90;;;;;;5075660;28;19985;-61
2023/05/01 00:30:31;;;;;;;;;;;13.00;99.90;;;;;;5075797;28;19992;-61
2023/05/01 00:32:57;;;;;;;;;;;13.00;99.90;;;;;;5075503;28;20043;-61
2023/05/01 00:35:22;;;;;;;;;;;13.00;99.90;;;;;;5075225;28;20045;-61
2023/05/01 00:37:48;;;;;;;;;;;13.00;99.90;;;;;;5075695;28;19997;-61
2023/05/01 00:40:13;;;;;;;;;;;12.90;99.90;;;;;;5075263;28;20100;-61
2023/05/01 00:42:39;;;;;;;;;;;12.90;99.90;;;;;;5075375;28;20001;-61
2023/05/01 00:45:06;;;;;;;;;;;12.90;99.90;;;;;;5075337;28;19986;-61
2023/05/01 00:47:32;;;;;;;;;;;12.80;99.90;;;;;;5073997;28;19990;-61
2023/05/01 00:49:58;;;;;;;;;;;12.70;99.90;;;;;;5075305;28;19989;-61
2023/05/01 00:52:24;;;;;;;;;;;12.60;99.90;;;;;;5075159;28;19985;-60
2023/05/01 00:54:51;;;;;;;;;;;12.50;99.90;;;;;;5074982;28;20009;-61
2023/05/01 00:57:20;;;;;;;;;;;12.50;99.90;;;;;;5075473;28;20432;-61
2023/05/01 00:59:46;;;;;;;;;;;12.50;99.90;;;;;;5075030;28;20454;-62
2023/05/01 01:02:12;;;;;;;;;;;12.60;99.90;;;;;;5074620;28;20458;-61
2023/05/01 01:04:42;;;;;;;;;;;12.60;99.90;;;;;;5075478;28;19986;-61
2023/05/01 01:07:14;;;;;;;;;;;12.50;99.90;;;;;;5074793;28;20034;-61
2023/05/01 01:09:46;;;;;;;;;;;12.60;99.90;;;;;;5074575;28;19993;-61
2023/05/01 01:12:12;;;;;;;;;;;12.60;99.90;;;;;;5074659;28;19996;-61
2023/05/01 01:14:54;;;;;;;;;;;12.50;99.90;;;;;;5074533;28;19989;-61
2023/05/01 01:17:23;;;;;;;;;;;12.50;99.90;;;;;;5074587;28;20418;-61
2023/05/01 01:19:51;;;;;;;;;;;12.50;99.90;;;;;;5074614;28;19985;-61
2023/05/01 01:22:19;;;;;;;;;;;12.40;99.90;;;;;;5074833;28;20083;-61
2023/05/01 01:24:46;;;;;;;;;;;12.40;99.90;;;;;;5074537;28;20396;-61
2023/05/01 01:27:23;;;;;;;;;;;12.40;99.90;;;;;;5074428;28;19991;-61
2023/05/01 01:29:58;;;;;;;;;;;12.40;99.90;;;;;;5074527;28;20449;-61
2023/05/01 01:32:31;;;;;;;;;;;12.40;99.90;;;;;;5074176;28;20035;-61
2023/05/01 01:35:09;;;;;;;;;;;12.30;99.90;;;;;;5074311;28;20005;-61
2023/05/01 01:37:50;;;;;;;;;;;12.30;99.90;;;;;;5074320;28;19989;-61
2023/05/01 01:40:18;;;;;;;;;;;12.20;99.90;;;;;;5074111;28;20032;-61
2023/05/01 01:42:45;;;;;;;;;;;12.20;99.90;;;;;;5074192;28;20039;-61
2023/05/01 01:45:14;;;;;;;;;;;12.20;99.90;;;;;;5074112;28;19996;-61
2023/05/01 01:47:40;;;;;;;;;;;12.10;99.90;;;;;;5073972;28;20031;-61
2023/05/01 01:50:07;;;;;;;;;;;12.00;99.90;;;;;;5074388;28;20043;-61
2023/05/01 01:52:34;;;;;;;;;;;12.00;99.90;;;;;;5073975;28;19989;-61
2023/05/01 01:55:08;;;;;;;;;;;12.10;99.90;;;;;;5073944;28;20060;-61
2023/05/01 01:57:35;;;;;;;;;;;12.10;99.90;;;;;;5073972;28;19996;-61
2023/05/01 02:00:00;;;;;;;;;;;12.00;99.90;;;;;;5074161;28;19990;-61
2023/05/01 02:02:27;;;;;;;;;;;11.90;99.90;;;;;;5074068;28;20501;-61
2023/05/01 02:04:55;;;;;;;;;;;11.90;99.90;;;;;;5073930;28;20073;-61
2023/05/01 02:07:21;;;;;;;;;;;12.00;99.90;;;;;;5073793;28;19993;-60
2023/05/01 02:09:48;;;;;;;;;;;12.00;99.90;;;;;;5074126;28;19993;-61
2023/05/01 02:12:15;;;;;;;;;;;12.00;99.90;;;;;;5073887;28;19993;-60
2023/05/01 02:14:41;;;;;;;;;;;12.00;99.90;;;;;;5073490;28;19986;-61
2023/05/01 02:17:08;;;;;;;;;;;12.00;99.90;;;;;;5074024;28;20398;-61
2023/05/01 02:19:34;;;;;;;;;;;12.00;99.90;;;;;;5073613;28;19985;-61
2023/05/01 02:22:00;;;;;;;;;;;12.00;99.90;;;;;;5073614;28;20035;-61
2023/05/01 02:24:27;;;;;;;;;;;11.90;99.90;;;;;;5073859;28;20428;-61
2023/05/01 02:26:58;;;;;;;;;;;11.80;99.90;;;;;;5073616;28;19989;-60
2023/05/01 02:29:25;;;;;;;;;;;11.80;99.90;;;;;;5073353;28;20055;-61
2023/05/01 02:31:50;;;;;;;;;;;11.80;99.90;;;;;;5073586;28;20457;-61
2023/05/01 02:34:16;;;;;;;;;;;11.80;99.90;;;;;;5073660;28;19989;-61
2023/05/01 02:36:41;;;;;;;;;;;11.80;99.90;;;;;;5073510;28;20013;-61
2023/05/01 02:39:07;;;;;;;;;;;11.80;99.90;;;;;;5073463;28;20529;-61
2023/05/01 02:41:34;;;;;;;;;;;11.80;99.90;;;;;;5073407;28;20417;-60
2023/05/01 02:44:03;;;;;;;;;;;11.80;99.90;;;;;;5073317;28;19996;-61
2023/05/01 02:46:29;;;;;;;;;;;11.80;99.90;;;;;;5073463;28;19989;-60
2023/05/01 02:48:56;;;;;;;;;;;11.80;99.90;;;;;;5073647;28;20033;-61
2023/05/01 02:51:22;;;;;;;;;;;11.70;99.90;;;;;;5073492;28;20068;-61
2023/05/01 02:53:48;;;;;;;;;;;11.70;99.90;;;;;;5073262;28;20085;-61
2023/05/01 02:56:14;;;;;;;;;;;11.50;99.90;;;;;;5073394;28;20059;-60
2023/05/01 02:58:40;;;;;;;;;;;11.50;99.90;;;;;;5073171;28;20072;-61
2023/05/01 03:01:06;;;;;;;;;;;11.40;99.90;;;;;;5073824;28;20071;-61
2023/05/01 03:03:32;;;;;;;;;;;11.50;99.90;;;;;;5073402;28;19985;-61
2023/05/01 03:05:58;;;;;;;;;;;11.40;99.90;;;;;;5073232;28;20033;-61
2023/05/01 03:08:23;;;;;;;;;;;11.40;99.90;;;;;;5073121;28;20035;-61
2023/05/01 03:10:49;;;;;;;;;;;11.40;99.90;;;;;;5073186;28;19985;-61
2023/05/01 03:13:15;;;;;;;;;;;11.40;99.90;;;;;;5073367;28;19989;-61
2023/05/01 03:15:41;;;;;;;;;;;11.40;99.90;;;;;;5073371;28;20005;-61
2023/05/01 03:18:07;;;;;;;;;;;11.30;99.90;;;;;;5073175;28;19989;-61
2023/05/01 03:20:32;;;;;;;;;;;11.20;99.90;;;;;;5073056;28;19989;-61
2023/05/01 03:22:58;;;;;;;;;;;11.20;99.90;;;;;;5073131;28;19993;-61
2023/05/01 03:25:24;;;;;;;;;;;11.20;99.90;;;;;;5073026;28;20019;-62
2023/05/01 03:27:50;;;;;;;;;;;11.20;99.90;;;;;;5072921;28;19986;-61
2023/05/01 03:30:15;;;;;;;;;;;11.10;99.90;;;;;;5073131;28;19985;-61
2023/05/01 03:32:41;;;;;;;;;;;11.10;99.90;;;;;;5075841;28;19993;-60
2023/05/01 03:35:08;;;;;;;;;;;11.10;99.90;;;;;;5076686;28;20092;-60
2023/05/01 03:37:33;;;;;;;;;;;11.10;99.90;;;;;;5076747;28;20079;-60
2023/05/01 03:39:59;;;;;;;;;;;11.10;99.90;;;;;;5076349;28;20067;-61
2023/05/01 03:42:25;;;;;;;;;;;11.10;99.90;;;;;;5076341;28;20001;-61
2023/05/01 03:44:51;;;;;;;;;;;11.10;99.90;;;;;;5076471;28;19985;-61
2023/05/01 03:47:17;;;;;;;;;;;11.10;99.90;;;;;;5076284;28;20503;-61
2023/05/01 03:49:43;;;;;;;;;;;11.10;99.90;;;;;;5076648;28;19997;-61
2023/05/01 03:52:09;;;;;;;;;;;11.10;99.90;;;;;;5076331;28;19992;-61
2023/05/01 03:54:35;;;;;;;;;;;11.20;99.90;;;;;;5076461;28;20100;-60
2023/05/01 03:57:01;;;;;;;;;;;11.20;99.90;;;;;;5076092;28;19992;-61
2023/05/01 03:59:27;;;;;;;;;;;11.20;99.90;;;;;;5076488;28;19993;-60
2023/05/01 04:01:52;;;;;;;;;;;11.20;99.90;;;;;;5076417;28;20466;-61
2023/05/01 04:04:18;;;;;;;;;;;11.20;99.90;;;;;;5076011;28;19990;-61
2023/05/01 04:06:43;;;;;;;;;;;11.20;99.90;;;;;;5076425;28;19990;-60
2023/05/01 04:09:09;;;;;;;;;;;11.20;99.90;;;;;;5076004;28;20503;-61
2023/05/01 04:11:35;;;;;;;;;;;11.20;99.90;;;;;;5076038;28;19990;-61
2023/05/01 04:14:01;;;;;;;;;;;11.20;99.90;;;;;;5076065;28;20008;-61
2023/05/01 04:16:26;;;;;;;;;;;11.30;99.90;;;;;;5075905;28;20013;-61
2023/05/01 04:18:52;;;;;;;;;;;11.10;99.90;;;;;;5076112;28;20395;-61
2023/05/01 04:21:17;;;;;;;;;;;11.10;99.90;;;;;;5075826;28;19992;-61
2023/05/01 04:23:43;;;;;;;;;;;11.00;99.90;;;;;;5075998;28;20043;-61
2023/05/01 04:26:08;;;;;;;;;;;11.10;99.90;;;;;;5075411;28;20509;-61
2023/05/01 04:28:34;;;;;;;;;;;11.20;99.90;;;;;;5075672;28;19990;-61
2023/05/01 04:31:00;;;;;;;;;;;11.20;99.90;;;;;;5075920;28;19993;-61
2023/05/01 04:33:27;;;;;;;;;;;11.20;99.90;;;;;;5075672;28;19985;-60
2023/05/01 04:35:52;;;;;;;;;;;11.20;99.90;;;;;;5075671;28;20009;-61
2023/05/01 04:38:18;;;;;;;;;;;11.30;99.90;;;;;;5075246;28;20500;-61
2023/05/01 04:40:44;;;;;;;;;;;11.40;99.90;;;;;;5075190;28;19993;-61
2023/05/01 04:43:10;;;;;;;;;;;11.40;99.90;;;;;;5073983;28;20006;-61
2023/05/01 04:45:37;;;;;;;;;;;11.40;99.90;;;;;;5075347;28;19985;-61
2023/05/01 04:48:02;;;;;;;;;;;11.40;99.90;;;;;;5075299;28;19992;-60
2023/05/01 04:50:28;;;;;;;;;;;11.50;99.90;;;;;;5075119;28;19985;-61
2023/05/01 04:52:53;;;;;;;;;;;11.50;99.90;;;;;;5075405;28;20031;-61
2023/05/01 04:55:19;;;;;;;;;;;11.60;99.90;;;;;;5074843;28;20059;-60
2023/05/01 04:57:45;;;;;;;;;;;11.60;99.90;;;;;;5075321;28;19989;-61
2023/05/01 05:00:10;;;;;;;;;;;11.60;99.90;;;;;;5075043;28;19985;-61
2023/05/01 05:02:36;;;;;;;;;;;11.70;99.90;;;;;;5075017;28;19985;-61
2023/05/01 05:05:02;;;;;;;;;;;11.70;99.90;;;;;;5075228;28;19989;-61
2023/05/01 05:07:27;;;;;;;;;;;11.80;99.90;;;;;;5074817;28;20435;-61
2023/05/01 05:09:53;;;;;;;;;;;11.90;99.90;;;;;;5074895;28;19989;-61
2023/05/01 05:12:18;;;;;;;;;;;11.90;99.90;;;;;;5075100;28;20428;-60
2023/05/01 05:14:44;;;;;;;;;;;12.00;99.90;;;;;;5074544;28;20370;-61
2023/05/01 05:17:09;;;;;;;;;;;12.00;99.90;;;;;;5074708;28;19985;-61
2023/05/01 05:19:35;;;;;;;;;;;12.00;99.90;;;;;;5074903;28;19990;-61
2023/05/01 05:22:01;;;;;;;;;;;12.10;99.90;;;;;;5074571;28;20008;-61
2023/05/01 05:24:26;;;;;;;;;;;12.10;99.90;;;;;;5074637;28;20016;-61
2023/05/01 05:26:53;;;;;;;;;;;12.20;99.90;;;;;;5074831;28;19996;-61
2023/05/01 05:29:19;;;;;;;;;;;12.20;99.90;;;;;;5074657;28;20083;-61
2023/05/01 05:31:46;;;;;;;;;;;12.20;99.90;;;;;;5074679;28;20463;-62
2023/05/01 05:34:11;;;;;;;;;;;12.10;99.90;;;;;;5074552;28;19985;-61
2023/05/01 05:36:37;;;;;;;;;;;12.00;99.90;;;;;;5074157;28;20063;-61
2023/05/01 05:39:02;;;;;;;;;;;12.00;99.90;;;;;;5074025;28;20028;-61
2023/05/01 05:41:28;;;;;;;;;;;12.00;99.90;;;;;;5074260;28;20062;-61
2023/05/01 05:43:54;;;;;;;;;;;12.10;99.90;;;;;;5074149;28;20079;-61
2023/05/01 05:46:19;;;;;;;;;;;12.30;99.90;;;;;;5074116;28;19986;-61
2023/05/01 05:48:45;;;;;;;;;;;12.50;99.90;;;;;;5074114;28;19990;-61
2023/05/01 05:51:10;;;;;;;;;;;12.50;99.90;;;;;;5074175;28;20095;-61
2023/05/01 05:53:36;;;;;;;;;;;12.70;99.90;;;;;;5073597;28;19985;-61
2023/05/01 05:56:02;;;;;;;;;;;12.80;99.90;;;;;;5073882;28;20074;-60
2023/05/01 05:58:27;;;;;;;;;;;13.00;99.90;;;;;;5074290;28;20029;-61
2023/05/01 06:00:54;;;;;;;;;;;13.20;99.90;;;;;;5074144;28;19989;-61
2023/05/01 06:03:20;;;;;;;;;;;13.40;99.90;;;;;;5073903;28;20076;-60
2023/05/01 06:05:46;;;;;;;;;;;13.50;99.90;;;;;;5073867;28;20032;-61
2023/05/01 06:08:12;;;;;;;;;;;13.60;99.90;;;;;;5073718;28;20435;-61
2023/05/01 06:10:38;;;;;;;;;;;13.80;99.90;;;;;;5073797;28;20459;-61
2023/05/01 06:13:07;;;;;;;;;;;14.00;99.90;;;;;;5074041;28;20015;-61
2023/05/01 06:15:32;;;;;;;;;;;14.00;99.90;;;;;;5073678;28;20060;-61
2023/05/01 06:17:58;;;;;;;;;;;14.10;99.90;;;;;;5073978;28;20071;-61
2023/05/01 06:20:23;;;;;;;;;;;14.20;99.90;;;;;;5074042;28;20011;-61
2023/05/01 06:22:49;;;;;;;;;;;14.20;99.90;;;;;;5073519;28;19985;-61
2023/05/01 06:25:15;;;;;;;;;;;14.40;99.90;;;;;;5073564;28;20044;-61
2023/05/01 06:27:40;;;;;;;;;;;14.50;99.90;;;;;;5073958;28;19996;-61
2023/05/01 06:30:07;;;;;;;;;;;14.70;99.90;;;;;;5073677;28;20394;-61
2023/05/01 06:32:33;;;;;;;;;;;14.90;99.90;;;;;;5073480;28;19990;-60
2023/05/01 06:34:58;;;;;;;;;;;15.20;99.90;;;;;;5073515;28;20016;-61
2023/05/01 06:37:24;;;;;;;;;;;15.40;99.90;;;;;;5073499;28;20021;-61
2023/05/01 06:39:49;;;;;;;;;;;15.60;99.90;;;;;;5073319;28;20021;-61
2023/05/01 06:42:15;;;;;;;;;;;15.90;99.90;;;;;;5073507;28;20005;-61
2023/05/01 06:44:41;;;;;;;;;;;16.40;99.90;;;;;;5073479;28;19986;-61
2023/05/01 06:47:07;;;;;;;;;;;18.80;97.00;;;;;;5073432;28;19995;-61
2023/05/01 06:49:32;;;;;;;;;;;21.90;73.90;;;;;;5073378;28;19986;-61
2023/05/01 06:51:58;;;;;;;;;;;23.90;59.70;;;;;;5073167;28;19997;-61
2023/05/01 06:54:25;;;;;;;;;;;25.80;55.50;;;;;;5073405;28;19985;-61
2023/05/01 06:56:51;;;;;;;;;;;27.00;51.30;;;;;;5073456;28;20009;-61
2023/05/01 06:59:17;;;;;;;;;;;28.20;48.00;;;;;;5073641;28;19993;-62
2023/05/01 07:01:42;;;;;;;;;;;28.70;46.80;;;;;;5073383;28;20040;-60
2023/05/01 07:04:08;;;;;;;;;;;29.00;46.30;;;;;;5073223;28;20084;-62
2023/05/01 07:06:34;;;;;;;;;;;28.80;47.00;;;;;;5074503;28;19985;-61
2023/05/01 07:08:59;;;;;;;;;;;29.20;45.80;;;;;;5077233;28;19985;-61
2023/05/01 07:11:25;;;;;;;;;;;30.00;43.50;;;;;;5077118;28;20008;-62
2023/05/01 07:13:51;;;;;;;;;;;30.70;43.30;;;;;;5077024;28;20497;-62
2023/05/01 07:16:17;;;;;;;;;;;30.90;42.20;;;;;;5076976;28;20015;-62
2023/05/01 07:18:42;;;;;;;;;;;31.40;42.90;;;;;;5076984;28;20435;-61
2023/05/01 07:21:10;;;;;;;;;;;31.60;42.80;;;;;;5076635;28;19989;-61
2023/05/01 07:23:36;;;;;;;;;;;32.10;42.10;;;;;;5076903;28;19989;-61
2023/05/01 07:26:02;;;;;;;;;;;32.40;40.70;;;;;;5076936;28;19985;-61
2023/05/01 07:28:28;;;;;;;;;;;32.70;40.90;;;;;;5076747;28;20034;-62
2023/05/01 07:30:54;;;;;;;;;;;32.80;40.50;;;;;;5076741;28;20084;-61
2023/05/01 07:33:19;;;;;;;;;;;33.30;40.00;;;;;;5076710;28;20004;-61
2023/05/01 07:35:45;;;;;;;;;;;33.60;39.80;;;;;;5076316;28;20023;-61
2023/05/01 07:38:11;;;;;;;;;;;33.60;38.90;;;;;;5076778;28;20037;-62
2023/05/01 07:40:37;;;;;;;;;;;33.90;39.30;;;;;;5076639;28;19989;-61
2023/05/01 07:43:03;;;;;;;;;;;34.40;38.50;;;;;;5076658;28;20455;-60
2023/05/01 07:45:29;;;;;;;;;;;34.90;37.80;;;;;;5076525;28;20087;-61
2023/05/01 07:47:55;;;;;;;;;;;34.10;38.30;;;;;;5076522;28;20029;-61
2023/05/01 07:50:22;;;;;;;;;;;33.80;39.90;;;;;;5076414;28;20414;-61
2023/05/01 07:52:47;;;;;;;;;;;33.60;39.80;;;;;;5076370;28;20043;-61
2023/05/01 07:55:13;;;;;;;;;;;34.00;38.60;;;;;;5076255;28;20044;-61
2023/05/01 07:57:38;;;;;;;;;;;34.10;39.60;;;;;;5076319;28;19985;-61
2023/05/01 08:00:04;;;;;;;;;;;34.20;40.60;;;;;;5076145;28;19989;-62
2023/05/01 08:02:30;;;;;;;;;;;34.30;39.30;;;;;;5076153;28;20010;-62
2023/05/01 08:04:55;;;;;;;;;;;34.20;40.30;;;;;;5075936;28;19985;-61
2023/05/01 08:07:21;;;;;;;;;;;34.40;39.30;;;;;;5076050;28;19989;-63
2023/05/01 08:09:47;;;;;;;;;;;34.80;39.00;;;;;;5076068;28;20032;-62
2023/05/01 08:12:12;;;;;;;;;;;34.80;40.00;;;;;;5076020;28;20036;-61
2023/05/01 08:14:38;;;;;;;;;;;34.30;40.10;;;;;;5075792;28;19985;-61
2023/05/01 08:17:03;;;;;;;;;;;34.40;38.70;;;;;;5075593;28;19992;-62
2023/05/01 08:19:29;;;;;;;;;;;34.40;38.70;;;;;;5075646;28;20016;-61
2023/05/01 08:21:54;;;;;;;;;;;34.00;39.10;;;;;;5075748;28;20336;-61
2023/05/01 08:24:20;;;;;;;;;;;34.10;38.90;;;;;;5075781;28;19990;-62
2023/05/01 08:26:46;;;;;;;;;;;34.10;38.40;;;;;;5075951;28;19989;-62
2023/05/01 08:29:11;;;;;;;;;;;34.40;39.70;;;;;;5075954;28;20080;-61
2023/05/01 08:31:38;;;;;;;;;;;34.30;38.70;;;;;;5075599;28;19990;-62
2023/05/01 08:34:04;;;;;;;;;;;34.30;37.90;;;;;;5075667;28;19995;-62
2023/05/01 08:36:31;;;;;;;;;;;33.80;37.80;;;;;;5075481;28;20005;-61
2023/05/01 08:38:56;;;;;;;;;;;33.20;39.60;;;;;;5075212;28;20483;-62
2023/05/01 08:41:22;;;;;;;;;;;33.40;37.70;;;;;;5074112;28;19989;-62
2023/05/01 08:43:48;;;;;;;;;;;33.40;35.40;;;;;;5075469;28;19982;-62
2023/05/01 08:46:23;;;;;;;;;;;31.90;35.40;;;;;;5075042;28;20032;-62
2023/05/01 08:48:49;;;;;;;;;;;31.70;36.90;;;;;;5075281;28;19996;-61
2023/05/01 08:51:16;;;;;;;;;;;32.50;36.90;;;;;;5075241;28;19986;-61
2023/05/01 08:53:42;;;;;;;;;;;32.70;35.70;;;;;;5075090;28;20079;-62
2023/05/01 08:56:09;;;;;;;;;;;33.20;35.90;;;;;;5075563;28;20120;-61
2023/05/01 08:58:35;;;;;;;;;;;33.00;35.30;;;;;;5075109;28;19985;-62
2023/05/01 09:01:01;;;;;;;;;;;32.90;36.00;;;;;;5075101;28;19990;-61
2023/05/01 09:03:30;;;;;;;;;;;33.10;36.20;;;;;;5075299;28;19993;-61
2023/05/01 09:05:56;;;;;;;;;;;33.10;37.70;;;;;;5074937;28;19989;-60
2023/05/01 09:08:21;;;;;;;;;;;32.80;35.90;;;;;;5074845;28;19992;-62
2023/05/01 09:10:47;;;;;;;;;;;32.30;37.90;;;;;;5074818;28;19989;-61
2023/05/01 09:13:13;;;;;;;;;;;32.40;38.30;;;;;;5074983;28;20467;-61
2023/05/01 09:15:38;;;;;;;;;;;32.50;38.10;;;;;;5074347;28;20016;-62
2023/05/01 09:18:04;;;;;;;;;;;32.40;38.40;;;;;;5074864;28;19992;-62
2023/05/01 09:20:31;;;;;;;;;;;32.40;37.90;;;;;;5074624;28;20091;-62
2023/05/01 09:22:57;;;;;;;;;;;32.30;36.20;;;;;;5074845;28;20435;-61
2023/05/01 09:25:22;;;;;;;;;;;32.50;35.80;;;;;;5074502;28;19993;-62
2023/05/01 09:27:48;;;;;;;;;;;32.60;37.90;;;;;;5074704;28;19989;-62
2023/05/01 09:30:34;;;;;;;;;;;32.00;35.30;;;;;;5073638;28;19992;-61
2023/05/01 09:33:03;;;;;;;;;;;31.50;37.60;;;;;;5073969;28;20043;-61
2023/05/01 09:35:29;;;;;;;;;;;30.50;36.20;;;;;;5074621;28;20010;-62
2023/05/01 09:37:55;;;;;;;;;;;30.90;41.60;;;;;;5074289;28;19986;-61
2023/05/01 09:40:25;;;;;;;;;;;31.40;38.70;;;;;;5074144;28;20471;-62
2023/05/01 09:42:51;;;;;;;;;;;31.70;39.70;;;;;;5074175;28;20417;-62
2023/05/01 09:45:20;;;;;;;;;;;31.50;39.30;;;;;;5072720;28;20028;-61
2023/05/01 09:47:46;;;;;;;;;;;31.30;38.10;;;;;;5074174;28;19992;-62
2023/05/01 09:50:28;;;;;;;;;;;30.40;39.20;;;;;;5074179;28;20440;-62
2023/05/01 09:52:53;;;;;;;;;;;30.90;40.10;;;;;;5074219;28;19989;-62
2023/05/01 09:55:20;;;;;;;;;;;30.70;39.10;;;;;;5074009;28;20053;-61
2023/05/01 09:57:46;;;;;;;;;;;30.00;36.50;;;;;;5073938;28;19986;-61
2023/05/01 10:00:15;;;;;;;;;;;29.70;39.20;;;;;;5073735;28;19996;-61
2023/05/01 10:02:44;;;;;;;;;;;29.30;37.10;;;;;;5073989;28;20383;-61
2023/05/01 10:05:10;;;;;;;;;;;28.60;37.00;;;;;;5074117;28;19989;-61
2023/05/01 10:07:36;;;;;;;;;;;28.70;42.20;;;;;;5073897;28;20360;-61
2023/05/01 10:10:15;;;;;;;;;;;29.00;40.20;;;;;;5073904;28;19985;-61
2023/05/01 10:12:40;;;;;;;;;;;29.30;38.20;;;;;;5073727;28;19990;-61
2023/05/01 10:15:06;;;;;;;;;;;30.00;36.90;;;;;;5073606;28;20012;-62
2023/05/01 10:17:32;;;;;;;;;;;30.30;37.60;;;;;;5073838;28;19985;-60
2023/05/01 10:19:58;;;;;;;;;;;29.80;37.80;;;;;;5073651;28;19992;-60
2023/05/01 10:22:25;;;;;;;;;;;30.10;39.20;;;;;;5073744;28;20071;-60
2023/05/01 10:24:51;;;;;;;;;;;29.90;37.10;;;;;;5073983;28;20076;-61
2023/05/01 10:27:17;;;;;;;;;;;29.60;36.10;;;;;;5073589;28;20420;-61
2023/05/01 10:29:45;;;;;;;;;;;30.10;38.40;;;;;;5073471;28;19996;-61
2023/05/01 10:32:10;;;;;;;;;;;30.40;37.00;;;;;;5073889;28;19990;-61
2023/05/01 10:34:39;;;;;;;;;;;30.70;38.70;;;;;;5073811;28;19996;-61
2023/05/01 10:37:11;;;;;;;;;;;29.80;36.50;;;;;;5073635;28;20034;-60
2023/05/01 10:39:37;;;;;;;;;;;29.70;38.00;;;;;;5073390;28;20443;-61
2023/05/01 10:42:12;;;;;;;;;;;29.90;38.90;;;;;;5077054;28;20115;-60
2023/05/01 10:44:39;;;;;;;;;;;30.00;37.40;;;;;;5077802;28;19985;-60
2023/05/01 10:47:23;;;;;;;;;;;30.30;36.80;;;;;;5077666;28;19989;-61
2023/05/01 10:50:06;;;;;;;;;;;30.70;36.80;;;;;;5077530;28;20054;-61
2023/05/01 10:52:50;;;;;;;;;;;30.60;36.40;;;;;;5077764;28;19989;-62
2023/05/01 10:55:31;;;;;;;;;;;30.50;39.40;;;;;;5077533;28;20020;-62
2023/05/01 10:57:57;;;;;;;;;;;30.70;35.60;;;;;;5077194;28;19988;-61
2023/05/01 11:00:22;;;;;;;;;;;30.70;37.30;;;;;;5077691;28;19989;-61
2023/05/01 11:02:48;;;;;;;;;;;30.60;36.60;;;;;;5077412;28;20488;-61
2023/05/01 11:05:13;;;;;;;;;;;30.40;36.10;;;;;;5077238;28;19986;-61
2023/05/01 11:07:39;;;;;;;;;;;30.60;38.80;;;;;;5077278;28;19985;-62
2023/05/01 11:10:23;;;;;;;;;;;30.30;35.00;;;;;;5077190;28;20076;-61
2023/05/01 11:12:52;;;;;;;;;;;30.20;37.70;;;;;;5076998;28;19985;-60
2023/05/01 11:15:28;;;;;;;;;;;30.30;37.10;;;;;;5077261;28;20074;-62
2023/05/01 11:17:54;;;;;;;;;;;30.70;37.40;;;;;;5076984;28;19988;-61
2023/05/01 11:20:22;;;;;;;;;;;30.80;38.00;;;;;;5076996;28;19985;-62
2023/05/01 11:22:49;;;;;;;;;;;30.40;35.30;;;;;;5077016;28;19985;-62
2023/05/01 11:25:19;;;;;;;;;;;30.30;34.60;;;;;;5077065;28;19993;-62
2023/05/01 11:27:52;;;;;;;;;;;30.30;37.40;;;;;;5076618;28;20028;-61
2023/05/01 11:30:18;;;;;;;;;;;30.30;36.20;;;;;;5076756;28;19989;-61
2023/05/01 11:32:45;;;;;;;;;;;30.30;35.20;;;;;;5076733;28;20039;-62
2023/05/01 11:35:18;;;;;;;;;;;30.80;37.10;;;;;;5076891;28;20009;-61
2023/05/01 11:37:44;;;;;;;;;;;30.90;36.20;;;;;;5076899;28;19989;-61
2023/05/01 11:40:23;;;;;;;;;;;30.80;36.70;;;;;;5076527;28;20022;-62
2023/05/01 11:42:49;;;;;;;;;;;30.50;35.80;;;;;;5076562;28;20001;-61
2023/05/01 11:45:15;;;;;;;;;;;30.90;34.50;;;;;;5076468;28;19986;-61
2023/05/01 11:47:40;;;;;;;;;;;31.10;33.30;;;;;;5076733;28;20012;-61
2023/05/01 11:50:06;;;;;;;;;;;31.00;35.30;;;;;;5076561;28;19984;-61
2023/05/01 11:53:01;;;;;;;;;;;29.60;35.80;;;;;;5075605;28;19986;-61
2023/05/01 11:55:33;;;;;;;;;;;29.50;37.10;;;;;;5066972;28;20070;-61
2023/05/01 11:57:59;;;;;;;;;;;29.70;37.00;;;;;;5076280;28;20088;-61
2023/05/01 12:00:25;;;;;;;;;;;29.80;34.20;;;;;;5076541;28;20040;-62
2023/05/01 12:02:58;;;;;;;;;;;29.60;35.10;;;;;;5076524;28;20031;-61
2023/05/01 12:05:24;;;;;;;;;;;29.80;36.40;;;;;;5076166;28;20004;-61
2023/05/01 12:07:50;;;;;;;;;;;30.20;35.40;;;;;;5076084;28;20055;-62
2023/05/01 12:10:16;;;;;;;;;;;30.50;36.60;;;;;;5075885;28;19985;-61
2023/05/01 12:12:42;;;;;;;;;;;30.00;34.10;;;;;;5076328;28;19989;-61
2023/05/01 12:15:08;;;;;;;;;;;29.40;36.00;;;;;;5076375;28;20100;-60
2023/05/01 12:17:35;;;;;;;;;;;29.20;34.40;;;;;;5075994;28;19986;-63
2023/05/01 12:20:01;;;;;;;;;;;29.30;35.50;;;;;;5075794;28;20024;-61
2023/05/01 12:22:28;;;;;;;;;;;29.40;37.10;;;;;;5076168;28;20016;-60
2023/05/01 12:24:54;;;;;;;;;;;29.90;35.40;;;;;;5075678;28;19985;-61
2023/05/01 12:27:19;;;;;;;;;;;30.00;34.50;;;;;;5075646;28;20356;-62
2023/05/01 12:29:46;;;;;;;;;;;30.30;35.10;;;;;;5075727;28;20035;-61
2023/05/01 12:32:15;;;;;;;;;;;30.40;35.70;;;;;;5075684;28;19985;-61
2023/05/01 12:34:41;;;;;;;;;;;30.30;33.60;;;;;;5075495;28;20470;-60
2023/05/01 12:37:07;;;;;;;;;;;30.20;34.40;;;;;;5075531;28;20044;-61
2023/05/01 12:39:37;;;;;;;;;;;29.90;34.40;;;;;;5075218;28;20048;-61
2023/05/01 12:42:09;;;;;;;;;;;30.10;36.40;;;;;;5075319;28;20000;-61
2023/05/01 12:44:35;;;;;;;;;;;30.50;34.10;;;;;;5075464;28;20021;-61
2023/05/01 12:47:03;;;;;;;;;;;30.20;37.40;;;;;;5075392;28;20007;-61
2023/05/01 12:49:30;;;;;;;;;;;30.60;35.00;;;;;;5075476;28;20324;-61
2023/05/01 12:51:56;;;;;;;;;;;30.80;33.90;;;;;;5075613;28;19989;-61
2023/05/01 12:54:22;;;;;;;;;;;30.60;34.70;;;;;;5075335;28;19993;-61
2023/05/01 12:56:48;;;;;;;;;;;29.60;34.30;;;;;;5075022;28;20005;-61
2023/05/01 12:59:24;;;;;;;;;;;29.30;35.60;;;;;;5075421;28;20424;-62
2023/05/01 13:01:57;;;;;;;;;;;29.70;35.80;;;;;;5075096;28;20359;-62
2023/05/01 13:04:23;;;;;;;;;;;30.10;34.60;;;;;;5074282;28;19989;-61
2023/05/01 13:06:49;;;;;;;;;;;29.80;35.30;;;;;;5074990;28;20034;-62
2023/05/01 13:09:16;;;;;;;;;;;30.10;37.50;;;;;;5074643;28;20492;-60
2023/05/01 13:11:42;;;;;;;;;;;30.40;36.40;;;;;;5075136;28;19993;-61
2023/05/01 13:14:07;;;;;;;;;;;30.10;35.40;;;;;;5074813;28;20075;-61
2023/05/01 13:16:33;;;;;;;;;;;30.30;36.40;;;;;;5074649;28;20005;-61
2023/05/01 13:18:59;;;;;;;;;;;30.00;35.80;;;;;;5074566;28;19989;-61
2023/05/01 13:21:25;;;;;;;;;;;30.10;36.90;;;;;;5074937;28;20436;-62
2023/05/01 13:23:54;;;;;;;;;;;29.80;36.90;;;;;;5074727;28;19989;-61
2023/05/01 13:26:34;;;;;;;;;;;29.90;37.00;;;;;;5074505;28;19993;-61
2023/05/01 13:29:00;;;;;;;;;;;29.70;35.10;;;;;;5074773;28;19997;-61
2023/05/01 13:31:26;;;;;;;;;;;29.80;36.40;;;;;;5074704;28;20012;-61
2023/05/01 13:33:53;;;;;;;;;;;30.30;39.30;;;;;;5074410;28;20444;-61
2023/05/01 13:36:19;;;;;;;;;;;30.60;35.50;;;;;;5074106;28;20471;-60
2023/05/01 13:38:45;;;;;;;;;;;30.60;34.70;;;;;;5074051;28;20069;-61
2023/05/01 13:41:20;;;;;;;;;;;30.50;36.50;;;;;;5074188;28;20440;-60
2023/05/01 13:43:46;;;;;;;;;;;29.50;36.20;;;;;;5074296;28;20084;-62
2023/05/01 13:46:13;;;;;;;;;;;29.20;36.60;;;;;;5074123;28;20021;-61
2023/05/01 13:48:40;;;;;;;;;;;28.80;36.80;;;;;;5074094;28;19989;-61
2023/05/01 13:51:09;;;;;;;;;;;28.80;36.60;;;;;;5073910;28;20084;-61
2023/05/01 13:53:35;;;;;;;;;;;28.90;36.30;;;;;;5074049;28;19986;-62
2023/05/01 13:56:04;;;;;;;;;;;28.90;37.40;;;;;;5074000;28;20012;-61
2023/05/01 13:58:29;;;;;;;;;;;29.30;38.70;;;;;;5073969;28;19988;-61
2023/05/01 14:00:55;;;;;;;;;;;29.70;36.80;;;;;;5073955;28;19992;-61
2023/05/01 14:03:21;;;;;;;;;;;30.10;37.20;;;;;;5073947;28;19985;-61
2023/05/01 14:05:47;;;;;;;;;;;30.10;36.90;;;;;;5074042;28;20000;-62
2023/05/01 14:08:12;;;;;;;;;;;30.10;36.50;;;;;;5074133;28;19989;-62
2023/05/01 14:10:38;;;;;;;;;;;30.30;36.80;;;;;;5074126;28;19985;-62
2023/05/01 14:13:03;;;;;;;;;;;30.70;37.10;;;;;;5074118;28;20512;-61
2023/05/01 14:15:30;;;;;;;;;;;30.90;37.30;;;;;;5073489;28;20012;-62